Latest Coastal Weather Observations for Sydney Airport

IDN60701

Issued at 2:31 am EST Monday 1 May 2017 (issued every 10 minutes, with the page automatically refreshed every 10 minutes)

About coastal observations | Map of coastal stations | Coastal observations for NSW | Marine services | Other Formats
Station Details ID: 066037 Name: SYDNEY AIRPORT AMO Lat: -33.95 Lon: 151.17 Height: 6.0 m
Data from the previous 72 hours. | See also: Recent months at Sydney Airport
Date/Time
EST
Temp
°C
Wind Pressure Rain since
9am
mm
Weather Cloud Vis
km
Sea
Height
m
Swell
Dir  Spd
kts
Gust
kts
hPa Trend Height
m
Period
s
Dir
01/02:00am 14.3 NNW 5 6 1020.5 - 0.0 - Mostly clear 10 - - - -
01/01:30am 14.9 N 6 6 1020.7 - 0.0 - Mostly clear 10 - - - -
01/01:00am 15.1 N 5 5 1020.8 - 0.0 - Mostly clear 10 - - - -
01/12:30am 15.2 NNW 5 6 1020.8 - 0.0 - Mostly clear 10 - - - -
01/12:00am 15.7 NW 6 8 1021.0 F 0.0 Fine Mostly clear 25 - - - -
 
Date/Time
EST
Temp
°C
Wind Pressure Rain since
9am
mm
Weather Cloud Vis
km
Sea
Height
m
Swell
Dir  Spd
kts
Gust
kts
hPa Trend Height
m
Period
s
Dir
30/11:30pm 16.1 WNW 6 7 1020.9 - 0.0 - Mostly clear 10 - - - -
30/11:00pm 16.2 NW 7 8 1021.0 - 0.0 - Mostly clear 10 - - - -
30/10:30pm 17.2 NW 6 8 1021.1 - 0.0 - Mostly clear 10 - - - -
30/10:00pm 17.8 CALM 0 0 1021.2 - 0.0 - Mostly clear 10 - - - -
30/09:30pm 17.8 NE 3 4 1021.3 - 0.0 - Mostly clear 10 - - - -
30/09:00pm 18.0 NNE 5 5 1021.4 F 0.0 Fine Mostly clear 25 - - - -
30/08:30pm 18.1 NE 5 5 1021.4 - 0.0 - Mostly clear 10 - - - -
30/08:00pm 17.9 E 6 7 1021.4 - 0.0 - Mostly clear 10 - - - -
30/07:30pm 18.3 E 6 7 1021.4 - 0.0 - Mostly clear 10 - - - -
30/07:00pm 18.6 E 5 6 1021.4 - 0.0 - Mostly clear 10 - - - -
30/06:30pm 18.6 ESE 6 7 1021.3 - 0.0 - Mostly clear 10 - - - -
30/06:00pm 18.3 ESE 7 8 1021.1 F 0.0 Fine Mostly clear 25 - - - -
30/05:30pm 19.0 ESE 7 9 1021.0 - 0.0 - Mostly clear 10 - - - -
30/05:00pm 19.1 SE 8 10 1020.8 - 0.0 - Mostly clear 10 - - - -
30/04:30pm 19.8 SE 8 9 1020.7 - 0.0 - Mostly clear 10 - - - -
30/04:00pm 19.9 SE 9 11 1020.7 - 0.0 - Mostly clear 10 - - - -
30/03:30pm 20.7 SSE 9 11 1020.7 - 0.0 - Mostly clear 10 - - - -
30/03:00pm 20.4 SSE 10 12 1020.9 R 0.0 Fine Partly cloudy 30 - - - -
30/02:30pm 20.0 S 11 14 1020.9 - 0.0 - Mostly clear 10 - - - -
30/02:00pm 20.3 S 11 14 1021.0 - 0.0 - Mostly clear 10 - - - -
30/01:30pm 20.0 S 11 14 1021.1 - 0.0 - Mostly clear 10 - - - -
30/01:00pm 20.0 S 11 14 1021.4 - 0.0 - Mostly clear 10 - - - -
30/12:30pm 19.9 S 11 17 1021.6 - 0.0 - Mostly clear 10 - - - -
30/12:00pm 19.9 S 11 15 1022.0 R 0.0 Fine Partly cloudy 30 - - - -
30/11:30am 19.9 S 13 17 1022.3 - 0.0 - Mostly clear 10 - - - -
30/11:00am 20.0 S 13 16 1022.5 - 0.0 - Mostly clear 10 - - - -
30/10:30am 19.6 S 13 16 1022.6 - 0.0 - Mostly clear 10 - - - -
30/10:00am 19.1 S 12 18 1022.7 - 0.0 - Mostly clear 10 - - - -
30/09:30am 17.8 WSW 5 6 1022.9 - 0.0 - Mostly clear 10 - - - -
30/09:00am 17.4 WNW 5 7 1023.0 F 0.0 Fine Mostly cloudy 25 - - - -
30/08:30am 17.0 NW 7 12 1023.1 - 0.0 - Mostly clear 10 - - - -
30/08:00am 16.2 NW 5 6 1023.1 - 0.0 - Mostly clear 10 - - - -
30/07:30am 15.3 WNW 7 8 1022.9 - 0.0 - Mostly clear 10 - - - -
30/07:00am 15.6 NW 8 9 1022.5 - 0.0 - Mostly clear 10 - - - -
30/06:30am 15.5 NW 7 8 1022.3 - 0.0 - Mostly clear 10 - - - -
30/06:00am 15.5 WNW 6 8 1022.2 R 0.0 Distant precip. Mostly cloudy 25 - - - -
30/05:30am 16.2 W 8 9 1021.9 - 0.0 - Mostly clear 10 - - - -
30/05:00am 17.6 SSW 7 8 1021.7 - 0.0 - Mostly clear 10 - - - -
30/04:30am 17.8 S 15 20 1021.5 - 0.0 - Mostly clear 10 - - - -
30/04:00am 15.6 S 12 18 1021.5 - 0.0 - Mostly clear 10 - - - -
30/03:30am 15.2 W 5 7 1021.4 - 0.0 Showers Mostly clear 10 - - - -
30/03:00am 14.4 SW 2 4 1021.3 R 0.0 Distant precip. Mostly cloudy 20 - - - -
30/02:30am 14.6 WNW 5 6 1021.2 - 0.0 - Mostly clear 10 - - - -
30/02:00am 14.8 NW 6 7 1021.3 - 0.0 - Mostly clear 10 - - - -
30/01:30am 15.3 NNW 7 8 1021.2 - 0.0 - Partly cloudy 10 - - - -
30/01:00am 15.9 NNW 6 7 1021.5 - 0.0 - - 10 - - - -
30/12:30am 16.0 NNW 7 8 1021.5 - 0.0 - Mostly clear 10 - - - -
30/12:00am 16.7 NNW 5 6 1021.6 R 0.0 Fine Partly cloudy 30 - - - -
 
Date/Time
EST
Temp
°C
Wind Pressure Rain since
9am
mm
Weather Cloud Vis
km
Sea
Height
m
Swell
Dir  Spd
kts
Gust
kts
hPa Trend Height
m
Period
s
Dir
29/11:30pm 17.1 WNW 6 7 1021.5 - 0.0 - Mostly clear 10 - - - -
29/11:00pm 17.3 NW 6 6 1021.4 - 0.0 - Mostly clear 10 - - - -
29/10:30pm 17.5 NW 6 9 1021.4 - 0.0 - Cloudy 10 - - - -
29/10:00pm 17.2 WNW 7 14 1021.5 - 0.0 - Cloudy 10 - - - -
29/09:30pm 17.8 S 6 8 1021.4 - 0.0 - Cloudy 10 - - - -
29/09:00pm 17.8 SSE 8 9 1021.1 S 0.0 Fine Partly cloudy 30 - - - -
29/08:30pm 17.9 SSE 8 9 1021.0 - 0.0 - Mostly clear 10 - - - -
29/08:00pm 18.1 SSE 8 9 1020.9 - 0.0 - Mostly clear 10 - - - -
29/07:30pm 18.2 SSE 8 10 1020.7 - 0.0 - Mostly clear 10 - - - -
29/07:00pm 18.3 SSE 8 10 1020.7 - 0.0 - - 10 - - - -
29/06:30pm 18.3 SSE 8 10 1020.4 - 0.0 - Mostly clear 10 - - - -
29/06:00pm 18.4 SSE 9 11 1019.9 R 0.0 Fine Mostly clear 30 - - - -
29/05:30pm 18.2 S 7 7 1019.6 - 0.0 - - 10 - - - -
29/05:00pm 18.6 S 7 10 1019.1 - 0.0 - - 10 - - - -
29/04:30pm 19.0 SSE 9 11 1019.0 - 0.0 - - 10 - - - -
29/04:00pm 19.2 S 9 14 1018.6 - 0.0 - - 10 - - - -
29/03:30pm 19.3 SSE 7 9 1018.6 - 0.0 - - 10 - - - -
29/03:00pm 19.5 S 9 12 1018.5 R 0.0 Fine Partly cloudy 25 - - - -
29/02:30pm 20.4 SE 7 9 1018.4 - 0.0 - - 10 - - - -
29/02:00pm 20.6 ESE 6 8 1018.3 - 0.0 - - 10 - - - -
29/01:30pm 19.5 ESE 6 7 1018.5 - 0.0 - - 10 - - - -
29/01:00pm 20.0 ESE 5 7 1018.9 - 0.0 - - 10 - - - -
29/12:30pm 19.6 S 5 8 1019.3 - 0.0 - - 10 - - - -
29/12:00pm 19.2 S 5 7 1019.7 R 0.0 Fine Mostly clear 25 - - - -
29/11:30am 18.9 SSW 5 7 1020.1 - 0.0 - - 10 - - - -
29/11:00am 18.8 WSW 5 9 1020.4 - 0.0 - - 10 - - - -
29/10:30am 19.5 W 6 9 1020.6 - 0.0 - - 10 - - - -
29/10:00am 18.2 W 7 11 1020.6 - 0.0 - - 10 - - - -
29/09:30am 17.1 W 7 9 1020.8 - 0.0 - - 10 - - - -
29/09:00am 15.9 WNW 8 10 1020.6 F 0.0 Fine Mostly clear 25 - - - -
29/08:30am 15.7 NW 8 11 1020.7 - 0.0 - - 10 - - - -
29/08:00am 13.9 NW 8 12 1020.7 - 0.0 - - 10 - - - -
29/07:30am 12.4 NW 8 9 1020.3 - 0.0 - - 10 - - - -
29/07:00am 12.4 NW 9 11 1020.2 - 0.0 - - 10 - - - -
29/06:30am 11.9 NW 8 10 1020.1 - 0.0 - - 10 - - - -
29/06:00am 11.6 NNW 9 10 1020.0 F 0.0 Fine Clear 25 - - - -
29/05:30am 10.6 NW 9 11 1019.9 - 0.0 - - 10 - - - -
29/05:00am 11.1 NW 9 10 1019.9 - 0.0 - - 10 - - - -
29/04:30am 11.5 NW 8 9 1019.6 - 0.0 - - 10 - - - -
29/04:00am 11.3 NW 9 10 1019.5 - 0.0 - - 10 - - - -
29/03:30am 11.7 WNW 8 9 1019.6 - 0.0 - - 10 - - - -
29/03:00am 11.9 NW 8 9 1019.4 F 0.0 Fine Clear 25 - - - -
29/02:30am 11.7 NW 8 10 1019.8 - 0.0 - - 10 - - - -
29/02:00am 12.5 NNW 6 8 1020.1 - 0.0 - - 10 - - - -
29/01:30am 12.7 NW 7 8 1020.4 - 0.0 - - 10 - - - -
29/01:00am 13.5 NNW 7 8 1020.5 - 0.0 - - 10 - - - -
29/12:30am 13.8 NNW 6 7 1020.5 - 0.0 - - 10 - - - -
29/12:00am 14.2 NW 5 8 1020.8 F 0.0 Fine Clear 30 - - - -
 
Date/Time
EST
Temp
°C
Wind Pressure Rain since
9am
mm
Weather Cloud Vis
km
Sea
Height
m
Swell
Dir  Spd
kts
Gust
kts
hPa Trend Height
m
Period
s
Dir
28/11:30pm 14.3 W 8 9 1020.7 - 0.0 - - 10 - - - -
28/11:00pm 14.7 WNW 7 8 1021.0 - 0.0 - - 10 - - - -
28/10:30pm 15.3 WNW 6 8 1021.2 - 0.0 - - 10 - - - -
28/10:00pm 16.0 NW 5 7 1021.2 - 0.0 - - 10 - - - -
28/09:30pm 16.1 NW 6 10 1021.2 - 0.0 - - 10 - - - -
28/09:00pm 16.3 WNW 6 9 1021.3 F 0.0 Fine Clear 30 - - - -
28/08:30pm 16.2 WNW 6 8 1021.0 - 0.0 - - 10 - - - -
28/08:00pm 16.2 WSW 5 6 1021.0 - 0.0 - - 10 - - - -
28/07:30pm 16.4 S 1 3 1021.1 - 0.0 - - 10 - - - -
28/07:00pm 17.0 S 5 6 1021.0 - 0.0 - - 10 - - - -
28/06:30pm 16.9 SSW 5 7 1020.8 - 0.0 - - 10 - - - -
28/06:00pm 17.2 SSE 5 6 1020.7 F 0.0 Fine Mostly clear 30 - - - -
28/05:30pm 17.2 SSW 7 8 1020.6 - 0.0 - - 10 - - - -
28/05:00pm 17.6 S 9 14 1020.5 - 0.0 - Mostly clear 10 - - - -
28/04:30pm 18.0 S 8 10 1020.3 - 0.0 - Mostly clear 10 - - - -
28/04:00pm 18.0 S 9 11 1020.5 - 0.0 - Mostly clear 10 - - - -
28/03:30pm 18.4 SSE 9 11 1020.4 - 0.0 - Mostly clear 10 - - - -
28/03:00pm 18.4 SSE 11 14 1020.4 S 0.0 Fine Partly cloudy 25 - - - -
28/02:30pm 18.2 S 12 15 1020.5 - 0.0 - Mostly clear 10 - - - -
28/02:00pm 18.1 S 12 14 1020.5 - 0.0 - Mostly clear 10 - - - -
28/01:30pm 18.1 S 13 16 1020.6 - 0.0 - Mostly clear 10 - - - -
28/01:00pm 17.9 S 13 16 1020.9 - 0.0 - Mostly clear 10 - - - -
28/12:30pm 18.8 SSW 8 11 1021.4 - 0.0 - Mostly clear 10 - - - -
28/12:00pm 18.5 SSW 8 10 1021.8 R 0.0 Fine Mostly clear 25 - - - -
28/11:30am 18.0 SSW 10 19 1022.1 - 0.0 - Mostly clear 10 - - - -
28/11:00am 17.9 SSW 11 18 1022.4 - 0.0 - Mostly clear 10 - - - -
28/10:30am 17.2 WSW 7 15 1022.7 - 0.0 - Mostly clear 10 - - - -
28/10:00am 16.3 WSW 9 13 1022.8 - 0.0 - Mostly clear 10 - - - -
28/09:30am 15.9 WSW 10 14 1022.7 - 0.0 - Mostly clear 10 - - - -
28/09:00am 14.9 WSW 11 14 1022.7 R 0.0 Fine Mostly clear 25 - - - -
28/08:30am 13.9 WSW 13 15 1022.3 - 0.0 - Mostly clear 10 - - - -
28/08:00am 12.9 WSW 13 16 1022.2 - 0.0 - Mostly clear 10 - - - -
28/07:30am 12.0 W 11 14 1022.0 - 0.0 - Mostly clear 10 - - - -
28/07:00am 11.1 W 10 14 1021.6 - 0.0 - Mostly clear 10 - - - -
28/06:30am 10.7 W 12 26 1021.3 - 0.0 - Mostly clear 10 - - - -
28/06:00am 10.9 W 14 15 1021.0 R 0.0 Fine Mostly clear 25 - - - -
28/05:30am 11.1 W 13 15 1020.7 - 0.0 - - 10 - - - -
28/05:00am 11.2 W 13 16 1020.5 - 0.0 - - 10 - - - -
28/04:30am 11.6 W 14 16 1020.4 - 0.0 - - 10 - - - -
28/04:00am 11.5 W 14 17 1020.1 - 0.0 - - 10 - - - -
28/03:30am 11.8 W 14 16 1019.8 - 0.0 - - 10 - - - -
28/03:00am 12.5 WSW 14 16 1019.9 R 0.0 Fine Mostly clear 25 - - - -

Other Formats:

Comma delimited format used in spreadsheet applications
http://www.bom.gov.au/fwo/IDN60701/IDN60701.94767.axf

JavaScript Object Notation format (JSON) in row-major order
http://www.bom.gov.au/fwo/IDN60701/IDN60701.94767.json